Time;durP1;ratioP1;P1;durP2;ratioP2;P2;SDS_P1;SDS_P2;PMS_P1;PMS_P2;Temp;Humidity;BMP_temperature;BMP_pressure;BME280_temperature;BME280_humidity;BME280_pressure;Samples;Min_cycle;Max_cycle;Signal;HPM_P1;HPM_P2
2023/01/20 00:00:35;;;;;;;0.10;0.10;;;;;;;-1.16;100.00;99199.88;6021712;23;20034;-92
2023/01/20 00:03:01;;;;;;;1.52;1.27;;;;;;;-1.22;100.00;99187.81;6069018;23;20022;-91
2023/01/20 00:05:26;;;;;;;0.13;0.13;;;;;;;-1.20;100.00;99201.00;6044762;23;20026;-93
2023/01/20 00:07:52;;;;;;;0.20;0.20;;;;;;;-1.22;100.00;99190.53;6069667;23;20016;-93
2023/01/20 00:10:17;;;;;;;0.65;0.47;;;;;;;-1.15;100.00;99200.66;6069506;23;20472;-92
2023/01/20 00:12:43;;;;;;;0.93;0.50;;;;;;;-1.08;100.00;99215.09;6069196;23;20085;-93
2023/01/20 00:15:09;;;;;;;1.67;1.42;;;;;;;-1.05;100.00;99217.06;6094700;23;20017;-92
2023/01/20 00:17:35;;;;;;;0.80;0.80;;;;;;;-1.19;100.00;99189.75;6045073;23;20210;-94
2023/01/20 00:20:01;;;;;;;1.60;1.50;;;;;;;-1.24;100.00;99179.22;6070294;23;20155;-94
2023/01/20 00:22:26;;;;;;;1.55;1.45;;;;;;;-1.21;100.00;99186.63;6022419;23;20018;-94
2023/01/20 00:24:52;;;;;;;0.45;0.45;;;;;;;-1.10;100.00;99200.31;6021653;23;20101;-93
2023/01/20 00:27:17;;;;;;;0.10;0.10;;;;;;;-1.13;100.00;99199.13;6022371;23;20336;-93
2023/01/20 00:29:43;;;;;;;0.88;0.88;;;;;;;-1.16;100.00;99194.44;6022237;23;20520;-94
2023/01/20 00:32:10;;;;;;;1.10;1.10;;;;;;;-1.15;100.00;99195.22;6070150;23;20375;-95
2023/01/20 00:34:36;;;;;;;4.93;1.55;;;;;;;-1.08;100.00;99209.66;6045789;23;20339;-94
2023/01/20 00:37:01;;;;;;;0.95;0.95;;;;;;;-1.17;100.00;99195.59;6046122;23;20481;-92
2023/01/20 00:39:27;;;;;;;2.25;0.68;;;;;;;-1.07;100.00;99203.06;6044552;23;20029;-92
2023/01/20 00:41:52;;;;;;;1.65;1.55;;;;;;;-1.07;100.00;99194.09;6094464;23;20018;-93
2023/01/20 00:44:18;;;;;;;0.35;0.35;;;;;;;-1.05;100.00;99195.28;6069645;23;20073;-92
2023/01/20 00:46:43;;;;;;;0.63;0.63;;;;;;;-0.87;100.00;99224.56;6069389;23;20017;-93
2023/01/20 00:49:09;;;;;;;0.93;0.93;;;;;;;-0.99;100.00;99199.22;6069444;23;20105;-93
2023/01/20 00:51:35;;;;;;;0.57;0.57;;;;;;;-0.98;100.00;99200.78;6069116;23;20037;-92
2023/01/20 00:54:00;;;;;;;0.43;0.43;;;;;;;-1.01;100.00;99201.53;6022295;23;20014;-92
2023/01/20 00:56:26;;;;;;;0.30;0.30;;;;;;;-0.77;100.00;99232.03;6094042;23;20003;-93
2023/01/20 00:58:54;;;;;;;0.30;0.30;;;;;;;-0.85;100.00;99208.63;6046457;23;20021;-94
2023/01/20 01:01:20;;;;;;;0.47;0.47;;;;;;;-0.90;100.00;99215.22;6022080;23;20018;-94
2023/01/20 01:03:46;;;;;;;0.63;0.63;;;;;;;-0.79;100.00;99234.31;6022054;23;20018;-93
2023/01/20 01:06:14;;;;;;;0.38;0.38;;;;;;;-0.78;100.00;99231.25;6045558;23;20485;-94
2023/01/20 01:08:40;;;;;;;1.33;1.27;;;;;;;-0.82;100.00;99213.31;6069629;23;20014;-93
2023/01/20 01:11:06;;;;;;;0.47;0.47;;;;;;;-0.85;100.00;99211.34;6045222;23;20005;-95
2023/01/20 01:13:32;;;;;;;1.70;1.58;;;;;;;-0.89;100.00;99219.50;6045841;23;20014;-92
2023/01/20 01:15:58;;;;;;;2.97;1.85;;;;;;;-0.87;100.00;99230.00;6020724;23;20037;-92
2023/01/20 01:18:23;;;;;;;1.85;1.75;;;;;;;-0.86;100.00;99239.75;6068846;23;20014;-92
2023/01/20 01:20:49;;;;;;;1.38;1.30;;;;;;;-0.96;100.00;99225.66;6066738;23;20061;-93
2023/01/20 01:23:15;;;;;;;0.40;0.40;;;;;;;-1.01;100.00;99212.41;6068352;23;20381;-92
2023/01/20 01:25:40;;;;;;;0.32;0.32;;;;;;;-0.82;100.00;99246.00;6093370;23;20135;-93
2023/01/20 01:28:06;;;;;;;0.68;0.68;;;;;;;-0.74;100.00;99258.47;6045124;23;20437;-92
2023/01/20 01:30:32;;;;;;;0.65;0.65;;;;;;;-0.81;100.00;99242.91;6068868;23;20433;-93
2023/01/20 01:32:57;;;;;;;0.80;0.80;;;;;;;-0.96;100.00;99228.41;6068847;23;20010;-93
2023/01/20 01:35:23;;;;;;;0.45;0.45;;;;;;;-0.96;100.00;99225.66;6069790;23;20006;-93
2023/01/20 01:37:48;;;;;;;0.17;0.17;;;;;;;-1.10;100.00;99209.28;6045762;23;20014;-94
2023/01/20 01:40:14;;;;;;;0.30;0.30;;;;;;;-0.89;100.00;99241.28;6045821;23;20017;-95
2023/01/20 01:42:40;;;;;;;1.05;1.05;;;;;;;-1.15;100.00;99212.34;6022273;23;20018;-94
2023/01/20 01:45:09;;;;;;;1.75;1.65;;;;;;;-0.95;100.00;99240.84;6046048;23;20018;-94
2023/01/20 01:50:52;;;;;;;0.63;0.63;;;;;;;-0.97;100.00;99242.41;6048463;23;20018;-93
2023/01/20 01:53:18;;;;;;;2.08;1.55;;;;;;;-1.14;100.00;99222.06;6068739;23;20018;-93
2023/01/20 01:55:54;;;;;;;1.27;0.90;;;;;;;-1.11;100.00;99228.69;6044893;23;20069;-92
2023/01/20 01:58:25;;;;;;;2.85;0.90;;;;;;;-1.11;100.00;99237.63;6068475;23;20010;-91
2023/01/20 02:00:51;;;;;;;0.10;0.10;;;;;;;-1.21;100.00;99232.88;6044614;23;20440;-92
2023/01/20 02:03:16;;;;;;;0.47;0.47;;;;;;;-1.25;100.00;99234.78;6043973;23;20014;-92
2023/01/20 02:05:42;;;;;;;0.10;0.10;;;;;;;-1.05;100.00;99255.16;6045037;23;20022;-91
2023/01/20 02:08:08;;;;;;;0.50;0.50;;;;;;;-1.22;100.00;99238.72;6068445;23;20503;-92
2023/01/20 02:10:34;;;;;;;0.25;0.25;;;;;;;-1.22;100.00;99236.78;6068315;23;20023;-92
2023/01/20 02:13:00;;;;;;;1.08;1.02;;;;;;;-1.30;100.00;99221.56;6069358;23;20353;-94
2023/01/20 02:15:39;;;;;;;0.60;0.60;;;;;;;-1.24;100.00;99241.81;6045497;23;20003;-94
2023/01/20 02:18:05;;;;;;;1.60;1.42;;;;;;;-1.07;100.00;99257.50;6045541;23;20011;-93
2023/01/20 02:20:37;;;;;;;1.13;1.13;;;;;;;-1.10;100.00;99260.97;6094272;23;20002;-94
2023/01/20 02:23:22;;;;;;;0.98;0.98;;;;;;;-1.22;100.00;99239.50;6093868;23;20014;-95
2023/01/20 02:26:12;;;;;;;0.60;0.60;;;;;;;-1.12;100.00;99255.13;6068435;23;20026;-94
2023/01/20 02:29:18;;;;;;;2.22;2.13;;;;;;;-1.17;100.00;99241.84;6044430;23;20108;-95
2023/01/20 02:31:47;;;;;;;0.22;0.22;;;;;;;-1.22;100.00;99244.94;6019196;23;20030;-93
2023/01/20 02:34:37;;;;;;;0.80;0.80;;;;;;;-1.24;100.00;99244.53;6093466;23;20065;-91
2023/01/20 02:37:11;;;;;;;0.20;0.20;;;;;;;-1.33;100.00;99232.41;6033026;23;20018;-92
2023/01/20 02:39:46;;;;;;;0.63;0.63;;;;;;;-1.32;100.00;99223.88;6065000;23;20018;-93
2023/01/20 02:42:19;;;;;;;0.75;0.75;;;;;;;-1.31;100.00;99246.41;6043614;23;20025;-93
2023/01/20 02:45:09;;;;;;;0.10;0.10;;;;;;;-1.42;100.00;99238.19;6068762;23;20077;-93
2023/01/20 02:47:49;;;;;;;0.73;0.73;;;;;;;-1.48;100.00;99232.28;6068361;23;20015;-93
2023/01/20 02:50:29;;;;;;;0.40;0.40;;;;;;;-1.28;100.00;99261.97;6067783;23;20011;-94
2023/01/20 02:52:57;;;;;;;4.25;1.25;;;;;;;-1.31;100.00;99255.38;6044101;23;20026;-94
2023/01/20 02:55:27;;;;;;;0.40;0.40;;;;;;;-1.31;100.00;99263.53;6020961;23;20014;-93
2023/01/20 02:58:01;;;;;;;0.00;0.00;;;;;;;-1.51;100.00;99226.81;6045874;23;20353;-95
2023/01/20 03:00:41;;;;;;;1.48;1.38;;;;;;;-1.47;100.00;99227.63;6021024;23;20018;-94
2023/01/20 03:03:10;;;;;;;0.08;0.08;;;;;;;-1.43;100.00;99234.69;6045149;23;20477;-95
2023/01/20 03:05:40;;;;;;;1.75;1.65;;;;;;;-1.37;100.00;99232.38;6023418;23;20014;-94
2023/01/20 03:08:07;;;;;;;1.90;1.75;;;;;;;-1.44;100.00;99232.31;6047087;23;20115;-94
2023/01/20 03:10:34;;;;;;;0.50;0.40;;;;;;;-1.62;100.00;99204.22;6046417;23;20455;-93
2023/01/20 03:13:08;;;;;;;0.75;0.75;;;;;;;-1.42;100.00;99235.47;6046599;23;20038;-92
2023/01/20 03:15:37;;;;;;;0.90;0.90;;;;;;;-1.60;100.00;99207.31;6069770;23;20089;-91
2023/01/20 03:18:03;;;;;;;0.40;0.40;;;;;;;-1.43;100.00;99244.78;6047054;23;20064;-93
2023/01/20 03:20:28;;;;;;;2.67;1.38;;;;;;;-1.66;100.00;99217.00;6069896;23;19998;-92
2023/01/20 03:22:54;;;;;;;0.85;0.85;;;;;;;-1.63;100.00;99219.75;6069856;23;20014;-93
2023/01/20 03:25:19;;;;;;;0.52;0.52;;;;;;;-1.63;100.00;99218.94;6069528;23;20348;-93
2023/01/20 03:27:45;;;;;;;0.85;0.85;;;;;;;-1.44;100.00;99233.09;6069564;23;20018;-94
2023/01/20 03:30:12;;;;;;;0.70;0.70;;;;;;;-1.43;100.00;99225.72;6045730;23;20033;-93
2023/01/20 03:32:38;;;;;;;0.25;0.25;;;;;;;-1.51;100.00;99221.38;6022649;23;20025;-94
2023/01/20 03:35:04;;;;;;;0.45;0.40;;;;;;;-1.57;100.00;99212.00;6046946;23;20026;-94
2023/01/20 03:37:30;;;;;;;0.80;0.80;;;;;;;-1.45;100.00;99228.81;6023272;23;20445;-95
2023/01/20 03:39:56;;;;;;;0.50;0.50;;;;;;;-1.47;100.00;99211.31;6046450;23;20014;-94
2023/01/20 03:42:33;;;;;;;0.82;0.82;;;;;;;-1.38;100.00;99222.66;6023159;23;20097;-93
2023/01/20 03:45:08;;;;;;;0.45;0.45;;;;;;;-1.42;100.00;99205.53;6047304;23;20022;-93
2023/01/20 03:47:43;;;;;;;0.10;0.10;;;;;;;-1.29;100.00;99211.47;6046412;23;20018;-94
2023/01/20 03:50:29;;;;;;;2.58;1.95;;;;;;;-1.25;100.00;99215.75;6046530;23;20076;-94
2023/01/20 03:53:18;;;;;;;0.05;0.05;;;;;;;-1.21;100.00;99219.28;6047110;23;20520;-93
2023/01/20 03:56:22;;;;;;;1.48;0.75;;;;;;;-1.20;100.00;99220.84;6038090;23;20101;-94
2023/01/20 03:58:50;;;;;;;0.30;0.30;;;;;;;-1.19;100.00;99222.41;6047299;23;20042;-93
2023/01/20 04:01:24;;;;;;;1.30;1.20;;;;;;;-1.24;100.00;99208.38;6070814;23;20022;-95
2023/01/20 04:03:51;;;;;;;0.93;0.93;;;;;;;-1.23;100.00;99212.66;6046139;23;20093;-93
2023/01/20 04:06:18;;;;;;;0.47;0.43;;;;;;;-1.17;100.00;99213.88;6046389;23;20018;-93
2023/01/20 04:08:50;;;;;;;0.47;0.47;;;;;;;-1.19;100.00;99189.75;6046310;23;20126;-92
2023/01/20 04:11:15;;;;;;;4.78;2.38;;;;;;;-1.31;100.00;99156.63;6069266;23;20010;-93
2023/01/20 04:13:41;;;;;;;0.32;0.32;;;;;;;-1.28;100.00;99158.59;6045881;23;20007;-92
2023/01/20 04:16:16;;;;;;;0.50;0.50;;;;;;;-1.15;100.00;99174.25;6022571;23;20011;-92
2023/01/20 04:18:44;;;;;;;0.63;0.63;;;;;;;-1.31;100.00;99168.31;6045270;23;20014;-93
2023/01/20 04:21:15;;;;;;;0.90;0.90;;;;;;;-1.38;100.00;99167.47;6045245;23;20376;-93
2023/01/20 04:24:01;;;;;;;0.52;0.50;;;;;;;-1.19;100.00;99195.19;6069739;23;20090;-92
2023/01/20 04:26:27;;;;;;;0.00;0.00;;;;;;;-1.28;100.00;99185.78;6069591;23;20042;-95
2023/01/20 04:28:52;;;;;;;0.10;0.10;;;;;;;-1.38;100.00;99181.88;6046650;23;20010;-93
2023/01/20 04:31:18;;;;;;;1.70;1.60;;;;;;;-1.52;100.00;99140.94;6022408;23;20014;-95
2023/01/20 04:33:43;;;;;;;0.88;0.85;;;;;;;-1.33;100.00;99169.84;6023069;23;20319;-95
2023/01/20 04:36:09;;;;;;;0.82;0.82;;;;;;;-1.43;100.00;99157.72;6046746;23;20445;-93
2023/01/20 04:38:35;;;;;;;1.60;1.50;;;;;;;-1.52;100.00;99128.13;6046324;23;20106;-95
2023/01/20 04:41:00;;;;;;;0.25;0.25;;;;;;;-1.55;100.00;99119.94;6070099;23;20521;-94
2023/01/20 04:43:26;;;;;;;0.73;0.73;;;;;;;-1.44;100.00;99148.00;6022209;23;20349;-93
2023/01/20 04:45:52;;;;;;;0.77;0.77;;;;;;;-1.39;100.00;99144.94;6045545;23;20049;-93
2023/01/20 04:48:17;;;;;;;0.20;0.20;;;;;;;-1.37;100.00;99158.91;6023119;23;20006;-94
2023/01/20 04:50:43;;;;;;;0.40;0.40;;;;;;;-1.37;100.00;99172.53;6045939;23;20018;-94
2023/01/20 04:53:15;;;;;;;0.55;0.55;;;;;;;-1.47;100.00;99162.34;6022657;23;20010;-94
2023/01/20 04:55:41;;;;;;;1.45;0.82;;;;;;;-1.49;100.00;99165.44;6045904;23;20229;-93
2023/01/20 04:58:09;;;;;;;0.38;0.38;;;;;;;-1.34;100.00;99188.09;6044718;23;20122;-94
2023/01/20 05:00:34;;;;;;;1.80;0.98;;;;;;;-1.52;100.00;99151.81;6044900;23;20145;-94
2023/01/20 05:03:01;;;;;;;0.93;0.93;;;;;;;-1.51;100.00;99167.78;6046567;23;20029;-94
2023/01/20 05:05:27;;;;;;;0.32;0.32;;;;;;;-1.51;100.00;99172.44;6068305;23;20381;-92
2023/01/20 05:07:54;;;;;;;0.15;0.15;;;;;;;-1.52;100.00;99181.75;6068896;23;20042;-93
2023/01/20 05:10:20;;;;;;;1.67;1.23;;;;;;;-1.40;100.00;99200.47;6045161;23;20007;-94
2023/01/20 05:12:45;;;;;;;0.30;0.30;;;;;;;-1.43;100.00;99214.84;6021027;23;20081;-92
2023/01/20 05:15:11;;;;;;;3.92;1.45;;;;;;;-1.47;100.00;99214.81;6094542;23;20004;-92
2023/01/20 05:17:37;;;;;;;0.80;0.63;;;;;;;-1.57;100.00;99195.69;6045908;23;20461;-92
2023/01/20 05:20:02;;;;;;;0.50;0.45;;;;;;;-1.63;100.00;99186.31;6069547;23;20371;-92
2023/01/20 05:22:31;;;;;;;0.45;0.45;;;;;;;-1.58;100.00;99205.81;6069225;23;20037;-93
2023/01/20 05:24:58;;;;;;;0.10;0.10;;;;;;;-1.67;100.00;99185.50;6046445;23;20041;-94
2023/01/20 05:27:24;;;;;;;0.70;0.43;;;;;;;-1.46;100.00;99223.78;6045692;23;20023;-96
2023/01/20 05:29:49;;;;;;;0.55;0.55;;;;;;;-1.57;100.00;99203.84;6045947;23;20033;-93
2023/01/20 05:32:15;;;;;;;1.27;1.27;;;;;;;-1.53;100.00;99218.25;6046228;23;20010;-94
2023/01/20 05:34:40;;;;;;;0.13;0.13;;;;;;;-1.57;100.00;99196.47;6069267;23;20018;-94
2023/01/20 05:37:06;;;;;;;2.45;2.35;;;;;;;-1.49;100.00;99214.41;6069742;23;20058;-93
2023/01/20 05:39:32;;;;;;;0.43;0.43;;;;;;;-1.53;100.00;99196.50;6021743;23;20274;-93
2023/01/20 05:41:57;;;;;;;0.20;0.20;;;;;;;-1.47;100.00;99201.22;6094304;23;20015;-94
2023/01/20 05:44:23;;;;;;;0.20;0.20;;;;;;;-1.57;100.00;99188.31;6043595;23;20449;-94
2023/01/20 05:46:48;;;;;;;0.32;0.32;;;;;;;-1.36;100.00;99219.56;6042264;23;20337;-93
2023/01/20 05:49:14;;;;;;;1.20;1.10;;;;;;;-1.43;100.00;99203.97;6019840;23;20014;-94
2023/01/20 05:51:40;;;;;;;0.60;0.45;;;;;;;-1.38;100.00;99213.72;6041722;23;20010;-94
2023/01/20 05:54:05;;;;;;;0.45;0.45;;;;;;;-1.64;100.00;99168.44;6044249;23;20090;-94
2023/01/20 05:56:31;;;;;;;0.85;0.85;;;;;;;-1.47;100.00;99192.28;6043604;23;20077;-96
2023/01/20 05:58:57;;;;;;;1.02;1.02;;;;;;;-1.54;100.00;99189.50;6067782;23;20437;-92
2023/01/20 06:01:22;;;;;;;0.20;0.20;;;;;;;-1.64;100.00;99173.88;6042738;23;20018;-94
2023/01/20 06:03:48;;;;;;;2.83;2.35;;;;;;;-1.43;100.00;99217.56;6018541;23;20097;-94
2023/01/20 06:06:14;;;;;;;0.10;0.10;;;;;;;-1.41;100.00;99232.34;6048127;23;20089;-93
2023/01/20 06:08:40;;;;;;;1.73;1.63;;;;;;;-1.66;100.00;99197.97;6026258;23;20085;-94
2023/01/20 06:11:06;;;;;;;0.52;0.50;;;;;;;-1.48;100.00;99234.22;6076195;23;20029;-93
2023/01/20 06:13:31;;;;;;;0.90;0.88;;;;;;;-1.66;100.00;99206.13;6043978;23;20018;-94
2023/01/20 06:15:57;;;;;;;1.13;1.10;;;;;;;-1.56;100.00;99208.13;6041553;23;20014;-94
2023/01/20 06:18:23;;;;;;;1.20;1.10;;;;;;;-1.51;100.00;99214.00;6019041;23;20014;-94
2023/01/20 06:20:49;;;;;;;0.75;0.68;;;;;;;-1.59;100.00;99201.50;6018015;23;20029;-93
2023/01/20 06:23:15;;;;;;;0.20;0.20;;;;;;;-1.56;100.00;99203.47;6041758;23;20381;-92
2023/01/20 06:25:41;;;;;;;0.50;0.50;;;;;;;-1.60;100.00;99202.66;6018933;23;20069;-92
2023/01/20 06:28:07;;;;;;;1.92;1.75;;;;;;;-1.58;100.00;99194.13;6067110;23;20094;-92
2023/01/20 06:30:32;;;;;;;0.22;0.22;;;;;;;-1.77;100.00;99164.44;6066955;23;20007;-92
2023/01/20 06:32:59;;;;;;;1.27;1.17;;;;;;;-1.77;100.00;99139.97;6044455;23;20089;-91
2023/01/20 06:35:25;;;;;;;0.45;0.45;;;;;;;-1.57;100.00;99190.25;6067479;23;20014;-92
2023/01/20 06:37:51;;;;;;;0.88;0.88;;;;;;;-1.76;100.00;99164.06;6043027;23;20056;-91
2023/01/20 06:40:17;;;;;;;1.00;0.93;;;;;;;-1.63;100.00;99180.88;6042632;23;20445;-93
2023/01/20 06:42:42;;;;;;;0.10;0.10;;;;;;;-1.58;100.00;99203.09;6045501;23;20056;-94
2023/01/20 06:45:09;;;;;;;1.40;0.80;;;;;;;-1.71;100.00;99190.13;6021435;23;20064;-94
2023/01/20 06:47:34;;;;;;;1.50;0.88;;;;;;;-1.70;100.00;99191.72;6043890;23;20006;-94
2023/01/20 06:50:00;;;;;;;0.22;0.22;;;;;;;-1.65;100.00;99213.09;6019696;23;20017;-92
2023/01/20 06:52:25;;;;;;;1.05;1.05;;;;;;;-1.74;100.00;99207.22;6069293;23;20085;-93
2023/01/20 06:54:51;;;;;;;0.10;0.10;;;;;;;-1.62;100.00;99224.03;6022150;23;20014;-93
2023/01/20 06:57:17;;;;;;;1.88;1.77;;;;;;;-1.74;100.00;99210.72;6044046;23;20014;-92
2023/01/20 06:59:42;;;;;;;0.20;0.20;;;;;;;-1.71;100.00;99215.38;6069499;23;20081;-94
2023/01/20 07:02:11;;;;;;;0.17;0.17;;;;;;;-1.70;100.00;99216.19;6021838;23;20034;-93
2023/01/20 07:04:37;;;;;;;0.98;0.98;;;;;;;-1.71;100.00;99218.09;6021076;23;20014;-93
2023/01/20 07:07:02;;;;;;;0.70;0.57;;;;;;;-1.54;100.00;99233.03;6046557;23;20022;-93
2023/01/20 07:09:28;;;;;;;0.75;0.75;;;;;;;-1.72;100.00;99211.09;6021652;23;20520;-93
2023/01/20 07:11:54;;;;;;;4.00;1.02;;;;;;;-1.68;100.00;99216.56;6046071;23;20006;-94
2023/01/20 07:14:20;;;;;;;1.17;1.17;;;;;;;-1.45;100.00;99241.63;6045466;23;20015;-94
2023/01/20 07:16:46;;;;;;;0.30;0.30;;;;;;;-1.43;100.00;99242.06;6046552;23;20018;-94
2023/01/20 07:19:12;;;;;;;0.28;0.28;;;;;;;-1.54;100.00;99233.03;6045467;23;20017;-91
2023/01/20 07:21:37;;;;;;;0.20;0.20;;;;;;;-1.43;100.00;99240.13;6044362;23;20003;-92
2023/01/20 07:24:03;;;;;;;0.65;0.65;;;;;;;-1.44;100.00;99243.19;6020835;23;20034;-91
2023/01/20 07:26:29;;;;;;;0.52;0.52;;;;;;;-1.50;100.00;99217.50;6043908;23;20017;-93
2023/01/20 07:28:57;;;;;;;1.83;1.67;;;;;;;-1.40;100.00;99244.00;6044429;23;20021;-91
2023/01/20 07:31:24;;;;;;;1.33;0.63;;;;;;;-1.35;100.00;99254.56;6042014;23;20018;-91
2023/01/20 07:33:50;;;;;;;0.10;0.10;;;;;;;-1.24;100.00;99263.56;6044176;23;20038;-91
2023/01/20 07:36:16;;;;;;;0.30;0.30;;;;;;;-1.22;100.00;99276.81;6020479;23;20015;-93
2023/01/20 07:38:42;;;;;;;0.60;0.60;;;;;;;-1.35;100.00;99245.59;6045097;23;20025;-92
2023/01/20 07:41:14;;;;;;;2.50;1.00;;;;;;;-1.17;100.00;99268.31;6020518;23;20330;-94
2023/01/20 07:43:40;;;;;;;1.15;0.95;;;;;;;-1.22;100.00;99265.94;6022034;23;20010;-94
2023/01/20 07:46:06;;;;;;;1.50;0.93;;;;;;;-1.22;100.00;99272.16;6045518;23;20017;-92
2023/01/20 07:48:32;;;;;;;1.75;1.25;;;;;;;-1.09;100.00;99278.84;6044613;23;20011;-93
2023/01/20 07:51:06;;;;;;;1.65;1.55;;;;;;;-1.03;100.00;99271.13;6022136;23;20006;-93
2023/01/20 07:53:34;;;;;;;4.88;0.80;;;;;;;-0.99;100.00;99274.66;6046324;23;20065;-92
2023/01/20 07:56:08;;;;;;;1.40;0.65;;;;;;;-1.16;100.00;99242.63;6022361;23;20006;-91
2023/01/20 07:58:34;;;;;;;0.10;0.10;;;;;;;-1.03;100.00;99261.03;6069863;23;20389;-91
2023/01/20 08:01:10;;;;;;;0.63;0.63;;;;;;;-1.02;100.00;99254.44;6044651;23;20018;-91
2023/01/20 08:03:36;;;;;;;0.40;0.40;;;;;;;-0.88;100.00;99269.28;6040979;23;20033;-92
2023/01/20 08:06:03;;;;;;;1.38;1.30;;;;;;;-0.79;100.00;99269.72;6043997;23;20089;-90
2023/01/20 08:08:30;;;;;;;0.15;0.15;;;;;;;-0.82;100.00;99270.50;6067977;23;20053;-92
2023/01/20 08:10:57;;;;;;;1.17;1.17;;;;;;;-0.86;100.00;99266.97;6043009;23;20057;-91
2023/01/20 08:13:22;;;;;;;1.08;0.80;;;;;;;-0.94;100.00;99249.81;6067989;23;20022;-91
2023/01/20 08:15:48;;;;;;;0.10;0.10;;;;;;;-0.73;100.00;99274.44;6068929;23;20057;-94
2023/01/20 08:18:13;;;;;;;0.77;0.77;;;;;;;-0.70;100.00;99270.19;6021817;23;20018;-94
2023/01/20 08:20:40;;;;;;;0.50;0.50;;;;;;;-0.79;100.00;99258.84;6022352;23;20433;-94
2023/01/20 08:23:05;;;;;;;0.13;0.13;;;;;;;-0.79;100.00;99261.56;6023214;23;20023;-93
2023/01/20 08:25:31;;;;;;;0.47;0.47;;;;;;;-0.74;100.00;99280.28;6022171;23;20333;-93
2023/01/20 08:27:57;;;;;;;0.45;0.43;;;;;;;-0.68;100.00;99295.06;6023395;23;20066;-94
2023/01/20 08:30:23;;;;;;;0.75;0.75;;;;;;;-0.65;100.00;99280.72;6023146;23;20007;-94
2023/01/20 08:32:48;;;;;;;0.70;0.70;;;;;;;-0.49;100.00;99295.59;6023541;23;20105;-93
2023/01/20 08:35:14;;;;;;;1.02;0.98;;;;;;;-0.62;100.00;99261.66;6045814;23;20488;-93
2023/01/20 08:37:40;;;;;;;1.23;1.10;;;;;;;-0.62;100.00;99267.13;6046563;23;20021;-95
2023/01/20 08:40:08;;;;;;;0.30;0.30;;;;;;;-0.52;100.00;99274.56;6022568;23;20007;-94
2023/01/20 08:42:33;;;;;;;0.52;0.52;;;;;;;-0.33;100.00;99300.75;6023342;23;20022;-95
2023/01/20 08:45:02;;;;;;;0.15;0.15;;;;;;;-0.34;100.00;99288.28;6022597;23;20021;-93
2023/01/20 08:47:29;;;;;;;0.17;0.17;;;;;;;-0.35;100.00;99297.59;6023307;23;20038;-95
2023/01/20 08:49:55;;;;;;;0.43;0.40;;;;;;;-0.30;100.00;99293.75;6046847;23;20445;-95
2023/01/20 08:52:23;;;;;;;1.40;1.30;;;;;;;-0.19;100.00;99306.25;6046350;23;20015;-96
2023/01/20 08:54:52;;;;;;;0.40;0.40;;;;;;;-0.18;100.00;99299.66;6069197;23;20002;-93
2023/01/20 08:57:18;;;;;;;0.30;0.30;;;;;;;-0.16;100.00;99296.53;6069774;23;20471;-92
2023/01/20 08:59:45;;;;;;;3.33;3.03;;;;;;;-0.15;100.00;99301.59;6094916;23;20042;-93
2023/01/20 09:02:11;;;;;;;0.20;0.20;;;;;;;-0.05;100.00;99306.31;6045608;23;20021;-93
2023/01/20 09:04:37;;;;;;;0.22;0.22;;;;;;;-0.19;100.00;99281.72;6094218;23;20011;-92
2023/01/20 09:07:03;;;;;;;1.02;0.93;;;;;;;0.07;100.00;99329.75;6022703;23;20065;-93
2023/01/20 09:09:28;;;;;;;0.90;0.90;;;;;;;0.08;100.00;99319.63;6094255;23;20045;-92
2023/01/20 09:11:54;;;;;;;0.08;0.08;;;;;;;0.13;100.00;99311.03;6045925;23;20014;-93
2023/01/20 09:14:22;;;;;;;0.82;0.82;;;;;;;0.25;100.00;99337.97;6022871;23;20006;-94
2023/01/20 09:16:48;;;;;;;0.68;0.68;;;;;;;0.21;100.00;99318.88;6046543;23;20461;-95
2023/01/20 09:19:13;;;;;;;0.17;0.17;;;;;;;0.15;100.00;99308.72;6022900;23;20098;-93
2023/01/20 09:21:39;;;;;;;0.55;0.55;;;;;;;0.24;100.00;99317.34;6046624;23;20018;-94
2023/01/20 09:24:05;;;;;;;0.17;0.17;;;;;;;0.21;100.00;99318.88;6046720;23;20469;-94
2023/01/20 09:26:37;;;;;;;0.10;0.10;;;;;;;0.14;100.00;99312.59;6023003;23;20014;-93
2023/01/20 09:29:13;;;;;;;0.43;0.43;;;;;;;0.04;100.00;99297.00;6047438;23;20030;-94
2023/01/20 09:31:44;;;;;;;0.30;0.30;;;;;;;0.28;100.00;99334.50;6045811;23;20469;-91
2023/01/20 09:34:15;;;;;;;0.47;0.47;;;;;;;0.27;100.00;99330.19;6069911;23;20019;-91
2023/01/20 09:36:40;;;;;;;1.38;1.30;;;;;;;0.16;100.00;99307.56;6045222;23;20409;-92
2023/01/20 09:45:24;;;;;;;2.28;0.75;;;;;;;0.46;100.00;99310.75;6073015;23;20042;-93
2023/01/20 09:47:55;;;;;;;0.30;0.30;;;;;;;0.32;100.00;99291.63;6069726;23;20025;-92
2023/01/20 09:53:29;;;;;;;0.10;0.10;;;;;;;0.31;100.00;99306.44;6050397;23;20027;-96
2023/01/20 09:55:57;;;;;;;0.73;0.35;;;;;;;0.30;100.00;99304.88;6046203;23;20728;-94
2023/01/20 09:58:52;;;;;;;1.55;1.45;;;;;;;0.42;100.00;99323.59;6022495;23;20070;-94
2023/01/20 10:01:30;;;;;;;1.48;1.38;;;;;;;0.33;100.00;99309.53;6045926;23;20019;-95
2023/01/20 10:04:03;;;;;;;0.03;0.03;;;;;;;0.31;100.00;99292.78;6018012;23;20425;-95
2023/01/20 10:06:44;;;;;;;0.73;0.73;;;;;;;0.45;100.00;99311.91;6041609;23;20023;-94
2023/01/20 10:09:23;;;;;;;0.85;0.85;;;;;;;0.24;100.00;99279.16;6041045;23;20373;-92
2023/01/20 10:11:52;;;;;;;0.85;0.85;;;;;;;0.19;100.00;99271.34;6064243;23;20366;-92
2023/01/20 10:14:20;;;;;;;0.50;0.43;;;;;;;0.44;100.00;99302.19;6040492;23;20079;-91
2023/01/20 10:16:54;;;;;;;2.17;1.35;;;;;;;0.50;100.00;99302.56;6064000;23;20511;-92
2023/01/20 10:19:26;;;;;;;0.50;0.40;;;;;;;0.52;100.00;99301.03;6040344;23;20419;-92
2023/01/20 10:22:41;;;;;;;0.20;0.20;;;;;;;0.39;100.00;99280.72;6064375;23;20011;-92
2023/01/20 10:25:17;;;;;;;0.10;0.10;;;;;;;0.61;100.00;99304.16;6060268;23;20026;-92
2023/01/20 10:27:55;;;;;;;0.52;0.52;;;;;;;0.71;100.00;99308.84;6039744;23;20019;-95
2023/01/20 10:30:23;;;;;;;3.13;2.17;;;;;;;0.65;100.00;99294.00;6017522;23;20015;-93
2023/01/20 10:33:09;;;;;;;0.43;0.43;;;;;;;0.68;100.00;99287.00;6041433;23;20014;-95
2023/01/20 10:35:38;;;;;;;0.47;0.47;;;;;;;0.76;100.00;99294.03;6065089;23;20050;-95
2023/01/20 10:38:07;;;;;;;0.95;0.95;;;;;;;0.69;100.00;99283.88;6041553;23;20101;-95
2023/01/20 10:40:52;;;;;;;0.40;0.35;;;;;;;0.83;100.00;99305.75;6017279;23;20007;-94
2023/01/20 10:43:19;;;;;;;0.00;0.00;;;;;;;0.59;100.00;99290.13;6018172;23;20046;-94
2023/01/20 10:46:00;;;;;;;0.08;0.08;;;;;;;0.79;100.00;99310.41;6021870;23;20070;-95
2023/01/20 10:49:20;;;;;;;1.10;0.63;;;;;;;0.90;100.00;99316.66;6016391;23;20155;-92
2023/01/20 10:52:22;;;;;;;1.90;1.80;;;;;;;0.75;100.00;99289.75;6038814;23;20026;-92
2023/01/20 10:54:55;;;;;;;0.43;0.43;;;;;;;0.91;100.00;99304.56;6028217;23;20053;-92
2023/01/20 10:57:21;;;;;;;1.30;0.95;;;;;;;0.68;100.00;99281.56;6063759;23;20030;-91
2023/01/20 10:59:49;;;;;;;1.20;1.10;;;;;;;0.90;100.00;99305.72;6064154;23;20007;-90
2023/01/20 11:02:21;;;;;;;0.30;0.30;;;;;;;0.91;100.00;99307.31;6064199;23;20014;-92
2023/01/20 11:04:52;;;;;;;0.10;0.10;;;;;;;0.79;100.00;99290.53;6063961;23;20034;-93
2023/01/20 11:07:18;;;;;;;1.15;1.05;;;;;;;0.65;100.00;99271.41;6040634;23;20452;-92
2023/01/20 11:09:45;;;;;;;1.77;1.23;;;;;;;0.73;100.00;99297.56;6063235;23;20042;-93
2023/01/20 11:12:14;;;;;;;0.98;0.98;;;;;;;0.83;100.00;99315.88;6064473;23;20521;-92
2023/01/20 11:14:40;;;;;;;0.10;0.10;;;;;;;0.63;100.00;99285.44;6063911;23;20062;-92
2023/01/20 11:17:07;;;;;;;2.25;1.13;;;;;;;0.78;100.00;99313.53;6064053;23;20011;-92
2023/01/20 11:19:52;;;;;;;0.38;0.38;;;;;;;0.82;100.00;99308.84;6063487;23;20093;-94
2023/01/20 11:22:32;;;;;;;1.15;1.05;;;;;;;0.80;100.00;99303.00;6040340;23;20077;-91
2023/01/20 11:24:59;;;;;;;0.88;0.88;;;;;;;0.81;100.00;99301.84;6040347;23;20014;-95
2023/01/20 11:27:28;;;;;;;1.92;1.83;;;;;;;0.75;100.00;99273.38;6018363;23;20003;-94
2023/01/20 11:30:05;;;;;;;0.30;0.30;;;;;;;0.83;100.00;99296.75;6018801;23;20019;-94
2023/01/20 11:32:36;;;;;;;0.57;0.57;;;;;;;0.52;100.00;99254.66;6043574;23;20086;-95
2023/01/20 11:35:17;;;;;;;0.63;0.63;;;;;;;0.67;100.00;99266.34;6019359;23;20029;-94
2023/01/20 11:37:43;;;;;;;1.75;1.17;;;;;;;0.74;100.00;99280.78;6042174;23;20022;-94
2023/01/20 11:40:24;;;;;;;0.50;0.50;;;;;;;0.74;100.00;99264.38;6018894;23;20014;-94
2023/01/20 11:42:50;;;;;;;3.22;1.40;;;;;;;0.82;100.00;99256.97;6066510;23;20015;-92
2023/01/20 11:45:42;;;;;;;0.45;0.32;;;;;;;0.96;100.00;99264.38;6067740;23;20057;-94
2023/01/20 11:48:17;;;;;;;0.10;0.10;;;;;;;0.89;100.00;99246.81;6040916;23;20042;-94